Tropical Cyclones
[Index]
Main Index Home Page Stock Weather Photos Extreme Storms Discussion Storm News and Storm Chasing Reports Tropical Cyclones / Hurricanes / Typhoons Weather Data and Links Wild Fires / Bushfires Weather Observation Techniques Weather Picture Catalogue Tornado Pictures and Reports Stock Video Footage and DVDs for sale
Season 1984-1985 Tropical Cyclone KIRSTY Track Map
Season 1984-1985 Summaries: [BoM-AU] [JTWC-AU] [JTWC-SIO] [JTWC-SPAC] [JTWC-SH]
<<- Previous TC | BoM 1984-1985 Season | Next TC ->>

click for intensity scale information  Lat/long Grid: Show Hide

 Date Labels: Show Hide

Bureau of Meteorology Tropical Cyclone Data

Name: KIRSTY
Number: 674 / 198485_12

01 Mar 1985 00:00 UTC to 19 Mar 1985 00:00 UTC

    date/time    lat    long    hPa   cat  kts
1985-03-01 00   10.5   112.0   1006         21          
1985-03-01 06   10.5   110.3   1004         21          
1985-03-01 12   10.5   110.3   1004         21          
1985-03-01 18   10.5   109.6   1004         21          
1985-03-02 00   10.4   108.7   1005         21          
1985-03-02 06   10.3   107.7   1003         23          
1985-03-02 09   10.3   107.3   1003         23          
1985-03-02 12   10.2   106.9   1004         21          
1985-03-02 16   10.1   106.3   1004         21          
1985-03-02 18   10.1   106.0   1004         21          
1985-03-02 21   10.1   105.6   1005         21          
1985-03-03 00   10.1   105.2   1005         21          
1985-03-03 03   10.1   104.8   1003         23          
1985-03-03 06   10.1   104.4   1002         25          
1985-03-03 09   10.1   104.0   1002         25          
1985-03-03 12   10.1   103.6   1002         25          
1985-03-03 16   10.2   103.0   1002         25          
1985-03-03 18   10.2   102.7   1003         23          
1985-03-04 00   10.2   101.9   1003         23          
1985-03-04 06   10.2   101.3   1002         23          
1985-03-04 12   10.2   100.7   1002         25          
1985-03-04 18   10.3   100.1   1002         25          
1985-03-05 00   10.3    99.5   1002         25          
1985-03-05 06   10.4    98.7   1001         27          
1985-03-05 09   10.5    98.3    999         31          
1985-03-05 12   10.5    97.9    999         31          
1985-03-05 16   10.5    97.3    998         33          
1985-03-05 18   10.6    97.0    997         35          
1985-03-05 21   10.6    96.5    997         35          
1985-03-06 00   10.6    95.9    997         35          
1985-03-06 03   10.7    95.3    995    1    39          
1985-03-06 06   10.8    94.7    993    1    43          
1985-03-06 12   11.0    93.9    990    1    45          
1985-03-06 18   11.3    93.0    988    1    51          
1985-03-07 00   11.7    92.4    986    1    52          
1985-03-07 06   12.2    91.7    982    2    58          
1985-03-07 12   12.8    90.6    978    2    64          
1985-03-07 18   13.2    89.3    975    2    66          
1985-03-08 00   13.5    88.5    970    3    74          
1985-03-08 06   13.5    87.7    966    3    78          
1985-03-08 12   13.6    87.1    954    4    91          
1985-03-08 18   13.9    86.4    950    4    93          
1985-03-09 00   14.2    86.0    941    4    103          
1985-03-09 06   14.7    85.4    920    5    122          
1985-03-09 12   15.3    85.1    920    5    122          
1985-03-09 18   15.9    84.8    920    5    122          
1985-03-10 00   16.5    84.8    920    5    122          
1985-03-10 06   17.2    84.8    923    5    119          
1985-03-10 12   18.0    84.9    941    4                
1985-03-10 18   18.6    84.9    947    4    97          
1985-03-11 00   19.0    85.0    954    4    91          
1985-03-11 06   19.2    85.0    963    3    82          
1985-03-11 12   19.5    85.1    971    2    74          
1985-03-11 18   19.9    85.2    976    2    66          
1985-03-12 00   20.3    85.3    976    2    66          
1985-03-12 06   20.7    85.7    976    2    66          
1985-03-12 12   21.3    85.9    976    2    66          
1985-03-12 18   22.0    86.2    976    2    66          
1985-03-13 00   22.6    86.6    976    2    66          
1985-03-13 06   23.3    87.2    978    2    64          
1985-03-13 12   24.0    87.9    982    2    58          
1985-03-13 18   24.5    88.6    984    2    54          
1985-03-14 00   24.9    89.6    986    1    52          
1985-03-14 06   25.3    90.8    988    1    51          
1985-03-14 12   25.8    92.0    990    1    47          
1985-03-14 18   26.3    93.2    991    1    45          
1985-03-15 00   26.9    94.4    992    1    43          
1985-03-15 06   27.4    95.6    993    1    43          
1985-03-15 12   27.9    96.6    994    1    39          
1985-03-15 18   28.4    97.3    994    1    39          
1985-03-16 00   28.9    98.1    995    1    39          
1985-03-16 06   29.5    98.9    997         35          
1985-03-16 12   30.2    99.5    998         33          
1985-03-16 18   31.0   100.1    999         31          
1985-03-17 00   32.1   100.8   1000         31          
1985-03-17 06   33.3   101.8   1002         27          
1985-03-17 12   33.7   103.6   1003         23          
1985-03-17 18   34.1   105.5   1004         21          
1985-03-18 00   34.5   107.5   1005         21          
1985-03-18 06   34.7   109.7   1006         19          
1985-03-18 12   34.6   111.4   1008         16          
1985-03-18 18   34.3   112.4   1010         12          
1985-03-19 00   33.6   113.0   1012         10          
Winds are 10-min average.

Tropical cyclone tracks developed by Michael Bath using data from the Bureau of Meteorology and Google Maps.


[Australian Severe Weather index] [Copyright Notice] [Email Contacts] [Search This Site] [Privacy Policy]
Document: tropical_cyclone_kirsty.htm Updated: 30 May 2013